Terminal Aerodrome Forecast
Issued by NWS

Home | Current Version | Previous Version | Text Only | Print | Product List | Glossary On
Versions: 1 2 3 4 5 6 7 8 9 10 11 12 13 14 15 16 17 18 19 20 21 22 23 24 25 26 27 28 29 30 31 32
000
FTUS46 KOTX 231140
TAFSFF
TAF
KSFF 231140Z 2312/2412 08003KT P6SM SCT006 OVC010
      TEMPO 2313/2316 4SM BR BKN006 OVC010
     FM232000 VRB02KT P6SM SCT008 OVC014
     FM240300 25002KT 6SM BR OVC012
     FM240600 VRB02KT 4SM BR OVC007=

USA.gov is the U.S. government's official web portal to all federal, state and local government web resources and services.